sensor_id;sensor_type;location;lat;lon;timestamp;P1;durP1;ratioP1;P2;durP2;ratioP2
13061;SDS011;6597;52.218;9.882;2022-07-09T00:00:06;3.33;;;2.07;;
13061;SDS011;6597;52.218;9.882;2022-07-09T00:02:37;4.07;;;2.13;;
13061;SDS011;6597;52.218;9.882;2022-07-09T00:05:04;9.60;;;2.07;;
13061;SDS011;6597;52.218;9.882;2022-07-09T00:07:31;2.67;;;1.70;;
13061;SDS011;6597;52.218;9.882;2022-07-09T00:09:57;3.83;;;2.27;;
13061;SDS011;6597;52.218;9.882;2022-07-09T00:12:25;3.73;;;1.80;;
13061;SDS011;6597;52.218;9.882;2022-07-09T00:14:52;2.80;;;1.60;;
13061;SDS011;6597;52.218;9.882;2022-07-09T00:17:18;2.07;;;1.70;;
13061;SDS011;6597;52.218;9.882;2022-07-09T00:19:45;2.57;;;1.73;;
13061;SDS011;6597;52.218;9.882;2022-07-09T00:22:11;1.70;;;1.60;;
13061;SDS011;6597;52.218;9.882;2022-07-09T00:24:38;2.13;;;1.40;;
13061;SDS011;6597;52.218;9.882;2022-07-09T00:27:05;3.23;;;1.70;;
13061;SDS011;6597;52.218;9.882;2022-07-09T00:29:33;4.90;;;1.80;;
13061;SDS011;6597;52.218;9.882;2022-07-09T00:31:59;2.50;;;1.77;;
13061;SDS011;6597;52.218;9.882;2022-07-09T00:34:26;1.80;;;1.60;;
13061;SDS011;6597;52.218;9.882;2022-07-09T00:36:52;3.07;;;1.77;;
13061;SDS011;6597;52.218;9.882;2022-07-09T00:39:19;5.63;;;2.07;;
13061;SDS011;6597;52.218;9.882;2022-07-09T00:41:46;1.90;;;1.30;;
13061;SDS011;6597;52.218;9.882;2022-07-09T00:44:12;5.03;;;1.90;;
13061;SDS011;6597;52.218;9.882;2022-07-09T00:46:40;6.10;;;1.90;;
13061;SDS011;6597;52.218;9.882;2022-07-09T00:49:07;2.33;;;1.57;;
13061;SDS011;6597;52.218;9.882;2022-07-09T00:51:33;3.17;;;1.93;;
13061;SDS011;6597;52.218;9.882;2022-07-09T00:54:00;2.33;;;1.70;;
13061;SDS011;6597;52.218;9.882;2022-07-09T00:56:28;1.87;;;1.57;;
13061;SDS011;6597;52.218;9.882;2022-07-09T00:58:56;2.47;;;2.00;;
13061;SDS011;6597;52.218;9.882;2022-07-09T01:01:24;2.20;;;1.80;;
13061;SDS011;6597;52.218;9.882;2022-07-09T01:03:52;4.87;;;2.10;;
13061;SDS011;6597;52.218;9.882;2022-07-09T01:06:18;2.10;;;1.90;;
13061;SDS011;6597;52.218;9.882;2022-07-09T01:08:45;3.40;;;1.90;;
13061;SDS011;6597;52.218;9.882;2022-07-09T01:11:11;3.87;;;1.80;;
13061;SDS011;6597;52.218;9.882;2022-07-09T01:13:38;4.87;;;1.80;;
13061;SDS011;6597;52.218;9.882;2022-07-09T01:16:10;6.50;;;1.97;;
13061;SDS011;6597;52.218;9.882;2022-07-09T01:18:37;4.30;;;1.70;;
13061;SDS011;6597;52.218;9.882;2022-07-09T01:21:05;4.07;;;1.90;;
13061;SDS011;6597;52.218;9.882;2022-07-09T01:23:32;1.97;;;1.73;;
13061;SDS011;6597;52.218;9.882;2022-07-09T01:25:59;2.27;;;1.70;;
13061;SDS011;6597;52.218;9.882;2022-07-09T01:28:26;3.47;;;1.90;;
13061;SDS011;6597;52.218;9.882;2022-07-09T01:30:53;2.30;;;1.90;;
13061;SDS011;6597;52.218;9.882;2022-07-09T01:33:20;2.27;;;1.83;;
13061;SDS011;6597;52.218;9.882;2022-07-09T01:35:46;5.10;;;2.07;;
13061;SDS011;6597;52.218;9.882;2022-07-09T01:38:14;2.80;;;1.80;;
13061;SDS011;6597;52.218;9.882;2022-07-09T01:40:41;3.43;;;2.00;;
13061;SDS011;6597;52.218;9.882;2022-07-09T01:43:07;3.53;;;1.70;;
13061;SDS011;6597;52.218;9.882;2022-07-09T01:45:34;3.07;;;2.20;;
13061;SDS011;6597;52.218;9.882;2022-07-09T01:48:00;2.90;;;2.20;;
13061;SDS011;6597;52.218;9.882;2022-07-09T01:50:27;2.97;;;2.00;;
13061;SDS011;6597;52.218;9.882;2022-07-09T01:52:53;5.70;;;1.77;;
13061;SDS011;6597;52.218;9.882;2022-07-09T01:55:21;3.10;;;1.97;;
13061;SDS011;6597;52.218;9.882;2022-07-09T01:57:48;2.93;;;1.70;;
13061;SDS011;6597;52.218;9.882;2022-07-09T02:00:15;3.80;;;2.17;;
13061;SDS011;6597;52.218;9.882;2022-07-09T02:02:43;5.30;;;2.07;;
13061;SDS011;6597;52.218;9.882;2022-07-09T02:05:10;2.87;;;2.20;;
13061;SDS011;6597;52.218;9.882;2022-07-09T02:07:37;4.67;;;2.03;;
13061;SDS011;6597;52.218;9.882;2022-07-09T02:10:04;5.33;;;2.10;;
13061;SDS011;6597;52.218;9.882;2022-07-09T02:12:32;3.77;;;1.93;;
13061;SDS011;6597;52.218;9.882;2022-07-09T02:14:59;2.40;;;2.20;;
13061;SDS011;6597;52.218;9.882;2022-07-09T02:17:25;5.03;;;2.20;;
13061;SDS011;6597;52.218;9.882;2022-07-09T02:19:52;2.20;;;2.00;;
13061;SDS011;6597;52.218;9.882;2022-07-09T02:22:18;4.17;;;2.20;;
13061;SDS011;6597;52.218;9.882;2022-07-09T02:24:45;7.37;;;2.73;;
13061;SDS011;6597;52.218;9.882;2022-07-09T02:27:12;5.97;;;2.20;;
13061;SDS011;6597;52.218;9.882;2022-07-09T02:29:40;7.70;;;2.43;;
13061;SDS011;6597;52.218;9.882;2022-07-09T02:32:06;10.73;;;2.70;;
13061;SDS011;6597;52.218;9.882;2022-07-09T02:34:35;6.73;;;2.50;;
13061;SDS011;6597;52.218;9.882;2022-07-09T02:37:02;8.53;;;2.50;;
13061;SDS011;6597;52.218;9.882;2022-07-09T02:39:29;5.77;;;2.50;;
13061;SDS011;6597;52.218;9.882;2022-07-09T02:41:56;5.37;;;2.70;;
13061;SDS011;6597;52.218;9.882;2022-07-09T02:44:22;5.20;;;2.50;;
13061;SDS011;6597;52.218;9.882;2022-07-09T02:46:50;3.57;;;2.27;;
13061;SDS011;6597;52.218;9.882;2022-07-09T02:49:17;4.17;;;2.50;;
13061;SDS011;6597;52.218;9.882;2022-07-09T02:51:43;4.13;;;2.60;;
13061;SDS011;6597;52.218;9.882;2022-07-09T02:54:10;3.47;;;2.50;;
13061;SDS011;6597;52.218;9.882;2022-07-09T02:56:37;6.23;;;2.70;;
13061;SDS011;6597;52.218;9.882;2022-07-09T02:59:03;2.60;;;2.30;;
13061;SDS011;6597;52.218;9.882;2022-07-09T03:01:30;4.07;;;2.17;;
13061;SDS011;6597;52.218;9.882;2022-07-09T03:03:58;4.27;;;2.60;;
13061;SDS011;6597;52.218;9.882;2022-07-09T03:06:24;4.57;;;2.40;;
13061;SDS011;6597;52.218;9.882;2022-07-09T03:08:51;9.20;;;3.00;;
13061;SDS011;6597;52.218;9.882;2022-07-09T03:11:17;6.07;;;2.73;;
13061;SDS011;6597;52.218;9.882;2022-07-09T03:13:44;4.97;;;2.50;;
13061;SDS011;6597;52.218;9.882;2022-07-09T03:16:10;7.97;;;2.97;;
13061;SDS011;6597;52.218;9.882;2022-07-09T03:18:37;5.43;;;2.83;;
13061;SDS011;6597;52.218;9.882;2022-07-09T03:21:05;6.83;;;2.73;;
13061;SDS011;6597;52.218;9.882;2022-07-09T03:23:33;7.20;;;2.93;;
13061;SDS011;6597;52.218;9.882;2022-07-09T03:26:00;5.30;;;2.70;;
13061;SDS011;6597;52.218;9.882;2022-07-09T03:28:27;4.97;;;2.73;;
13061;SDS011;6597;52.218;9.882;2022-07-09T03:30:53;4.33;;;2.30;;
13061;SDS011;6597;52.218;9.882;2022-07-09T03:33:20;6.00;;;3.20;;
13061;SDS011;6597;52.218;9.882;2022-07-09T03:35:47;3.87;;;2.40;;
13061;SDS011;6597;52.218;9.882;2022-07-09T03:38:16;6.97;;;2.60;;
13061;SDS011;6597;52.218;9.882;2022-07-09T03:40:42;8.30;;;3.07;;
13061;SDS011;6597;52.218;9.882;2022-07-09T03:43:09;9.10;;;3.20;;
13061;SDS011;6597;52.218;9.882;2022-07-09T03:45:35;8.10;;;3.03;;
13061;SDS011;6597;52.218;9.882;2022-07-09T03:48:02;7.60;;;3.20;;
13061;SDS011;6597;52.218;9.882;2022-07-09T03:50:29;8.77;;;2.83;;
13061;SDS011;6597;52.218;9.882;2022-07-09T03:52:56;5.13;;;2.87;;
13061;SDS011;6597;52.218;9.882;2022-07-09T03:55:25;2.80;;;2.50;;
13061;SDS011;6597;52.218;9.882;2022-07-09T03:57:51;7.63;;;3.13;;
13061;SDS011;6597;52.218;9.882;2022-07-09T04:00:18;10.23;;;2.43;;
13061;SDS011;6597;52.218;9.882;2022-07-09T04:02:44;9.53;;;3.07;;
13061;SDS011;6597;52.218;9.882;2022-07-09T04:05:11;5.50;;;3.20;;
13061;SDS011;6597;52.218;9.882;2022-07-09T04:07:38;6.60;;;3.00;;
13061;SDS011;6597;52.218;9.882;2022-07-09T04:10:06;7.37;;;3.50;;
13061;SDS011;6597;52.218;9.882;2022-07-09T04:12:34;7.50;;;2.83;;
13061;SDS011;6597;52.218;9.882;2022-07-09T04:15:01;10.07;;;2.70;;
13061;SDS011;6597;52.218;9.882;2022-07-09T04:17:28;6.90;;;2.63;;
13061;SDS011;6597;52.218;9.882;2022-07-09T04:19:55;7.63;;;3.10;;
13061;SDS011;6597;52.218;9.882;2022-07-09T04:22:21;6.03;;;2.70;;
13061;SDS011;6597;52.218;9.882;2022-07-09T04:24:48;5.07;;;2.87;;
13061;SDS011;6597;52.218;9.882;2022-07-09T04:27:14;5.33;;;2.80;;
13061;SDS011;6597;52.218;9.882;2022-07-09T04:29:42;9.40;;;3.27;;
13061;SDS011;6597;52.218;9.882;2022-07-09T04:32:09;11.37;;;3.33;;
13061;SDS011;6597;52.218;9.882;2022-07-09T04:34:35;8.10;;;2.90;;
13061;SDS011;6597;52.218;9.882;2022-07-09T04:37:02;5.53;;;3.07;;
13061;SDS011;6597;52.218;9.882;2022-07-09T04:39:29;5.50;;;2.77;;
13061;SDS011;6597;52.218;9.882;2022-07-09T04:41:56;4.27;;;2.80;;
13061;SDS011;6597;52.218;9.882;2022-07-09T04:44:22;5.70;;;3.20;;
13061;SDS011;6597;52.218;9.882;2022-07-09T04:46:50;7.33;;;3.07;;
13061;SDS011;6597;52.218;9.882;2022-07-09T04:49:17;6.80;;;2.73;;
13061;SDS011;6597;52.218;9.882;2022-07-09T04:51:43;7.83;;;3.20;;
13061;SDS011;6597;52.218;9.882;2022-07-09T04:54:10;6.83;;;3.27;;
13061;SDS011;6597;52.218;9.882;2022-07-09T04:56:36;4.70;;;2.93;;
13061;SDS011;6597;52.218;9.882;2022-07-09T04:59:03;7.30;;;3.20;;
13061;SDS011;6597;52.218;9.882;2022-07-09T05:01:29;5.20;;;3.10;;
13061;SDS011;6597;52.218;9.882;2022-07-09T05:03:57;7.20;;;3.20;;
13061;SDS011;6597;52.218;9.882;2022-07-09T05:06:24;6.60;;;3.33;;
13061;SDS011;6597;52.218;9.882;2022-07-09T05:08:51;7.03;;;3.00;;
13061;SDS011;6597;52.218;9.882;2022-07-09T05:11:18;6.50;;;2.87;;
13061;SDS011;6597;52.218;9.882;2022-07-09T05:13:44;4.90;;;2.93;;
13061;SDS011;6597;52.218;9.882;2022-07-09T05:16:11;7.47;;;3.27;;
13061;SDS011;6597;52.218;9.882;2022-07-09T05:18:38;7.17;;;3.23;;
13061;SDS011;6597;52.218;9.882;2022-07-09T05:21:06;7.03;;;3.23;;
13061;SDS011;6597;52.218;9.882;2022-07-09T05:23:33;4.40;;;2.90;;
13061;SDS011;6597;52.218;9.882;2022-07-09T05:25:59;6.50;;;3.17;;
13061;SDS011;6597;52.218;9.882;2022-07-09T05:28:26;6.23;;;3.30;;
13061;SDS011;6597;52.218;9.882;2022-07-09T05:30:53;4.40;;;3.10;;
13061;SDS011;6597;52.218;9.882;2022-07-09T05:33:19;4.97;;;2.87;;
13061;SDS011;6597;52.218;9.882;2022-07-09T05:35:46;4.77;;;3.20;;
13061;SDS011;6597;52.218;9.882;2022-07-09T05:38:14;7.30;;;3.07;;
13061;SDS011;6597;52.218;9.882;2022-07-09T05:40:41;6.10;;;3.20;;
13061;SDS011;6597;52.218;9.882;2022-07-09T05:43:07;4.13;;;3.00;;
13061;SDS011;6597;52.218;9.882;2022-07-09T05:45:34;5.63;;;2.87;;
13061;SDS011;6597;52.218;9.882;2022-07-09T05:48:00;3.90;;;3.10;;
13061;SDS011;6597;52.218;9.882;2022-07-09T05:50:27;5.47;;;3.00;;
13061;SDS011;6597;52.218;9.882;2022-07-09T05:52:54;5.47;;;3.60;;
13061;SDS011;6597;52.218;9.882;2022-07-09T05:55:22;6.88;;;3.13;;
13061;SDS011;6597;52.218;9.882;2022-07-09T05:57:48;4.90;;;3.00;;
13061;SDS011;6597;52.218;9.882;2022-07-09T06:00:15;6.43;;;3.30;;
13061;SDS011;6597;52.218;9.882;2022-07-09T06:02:41;6.83;;;3.30;;
13061;SDS011;6597;52.218;9.882;2022-07-09T06:05:08;4.88;;;2.92;;
13061;SDS011;6597;52.218;9.882;2022-07-09T06:07:35;8.60;;;3.80;;
13061;SDS011;6597;52.218;9.882;2022-07-09T06:10:01;4.97;;;3.00;;
13061;SDS011;6597;52.218;9.882;2022-07-09T06:12:30;8.88;;;2.92;;
13061;SDS011;6597;52.218;9.882;2022-07-09T06:14:56;4.95;;;3.00;;
13061;SDS011;6597;52.218;9.882;2022-07-09T06:17:23;3.92;;;2.85;;
13061;SDS011;6597;52.218;9.882;2022-07-09T06:19:49;6.25;;;2.60;;
13061;SDS011;6597;52.218;9.882;2022-07-09T06:22:16;8.57;;;2.85;;
13061;SDS011;6597;52.218;9.882;2022-07-09T06:24:42;4.65;;;2.47;;
13061;SDS011;6597;52.218;9.882;2022-07-09T06:27:09;3.15;;;2.50;;
13061;SDS011;6597;52.218;9.882;2022-07-09T06:29:37;8.15;;;2.30;;
13061;SDS011;6597;52.218;9.882;2022-07-09T06:32:04;3.20;;;2.10;;
13061;SDS011;6597;52.218;9.882;2022-07-09T06:34:31;5.03;;;1.80;;
13061;SDS011;6597;52.218;9.882;2022-07-09T06:36:58;2.08;;;1.75;;
13061;SDS011;6597;52.218;9.882;2022-07-09T06:39:25;4.43;;;2.00;;
13061;SDS011;6597;52.218;9.882;2022-07-09T06:42:09;6.85;;;2.00;;
13061;SDS011;6597;52.218;9.882;2022-07-09T06:44:36;2.78;;;1.70;;
13061;SDS011;6597;52.218;9.882;2022-07-09T06:47:04;2.38;;;1.58;;
13061;SDS011;6597;52.218;9.882;2022-07-09T06:49:31;2.03;;;1.65;;
13061;SDS011;6597;52.218;9.882;2022-07-09T06:51:58;1.45;;;1.05;;
13061;SDS011;6597;52.218;9.882;2022-07-09T06:54:25;2.65;;;1.40;;
13061;SDS011;6597;52.218;9.882;2022-07-09T06:56:52;3.50;;;1.20;;
13061;SDS011;6597;52.218;9.882;2022-07-09T06:59:18;1.42;;;1.10;;
13061;SDS011;6597;52.218;9.882;2022-07-09T07:01:48;1.38;;;1.20;;
13061;SDS011;6597;52.218;9.882;2022-07-09T07:04:15;1.10;;;1.00;;
13061;SDS011;6597;52.218;9.882;2022-07-09T07:06:42;1.30;;;1.20;;
13061;SDS011;6597;52.218;9.882;2022-07-09T07:09:08;2.53;;;1.20;;
13061;SDS011;6597;52.218;9.882;2022-07-09T07:11:35;1.75;;;1.02;;
13061;SDS011;6597;52.218;9.882;2022-07-09T07:14:02;3.65;;;1.17;;
13061;SDS011;6597;52.218;9.882;2022-07-09T07:16:28;1.25;;;1.13;;
13061;SDS011;6597;52.218;9.882;2022-07-09T07:18:56;1.35;;;1.17;;
13061;SDS011;6597;52.218;9.882;2022-07-09T07:21:23;2.03;;;1.10;;
13061;SDS011;6597;52.218;9.882;2022-07-09T07:23:49;2.90;;;1.50;;
13061;SDS011;6597;52.218;9.882;2022-07-09T07:26:16;2.58;;;1.33;;
13061;SDS011;6597;52.218;9.882;2022-07-09T07:28:42;5.50;;;1.33;;
13061;SDS011;6597;52.218;9.882;2022-07-09T07:31:09;2.22;;;1.35;;
13061;SDS011;6597;52.218;9.882;2022-07-09T07:33:35;1.95;;;1.02;;
13061;SDS011;6597;52.218;9.882;2022-07-09T07:36:05;2.30;;;1.10;;
13061;SDS011;6597;52.218;9.882;2022-07-09T07:38:32;1.17;;;1.08;;
13061;SDS011;6597;52.218;9.882;2022-07-09T07:40:59;1.17;;;1.05;;
13061;SDS011;6597;52.218;9.882;2022-07-09T07:43:25;1.88;;;1.20;;
13061;SDS011;6597;52.218;9.882;2022-07-09T07:45:52;1.55;;;1.20;;
13061;SDS011;6597;52.218;9.882;2022-07-09T07:48:19;1.85;;;1.50;;
13061;SDS011;6597;52.218;9.882;2022-07-09T07:50:45;4.55;;;1.88;;
13061;SDS011;6597;52.218;9.882;2022-07-09T07:53:13;3.90;;;1.77;;
13061;SDS011;6597;52.218;9.882;2022-07-09T07:55:40;3.28;;;1.88;;
13061;SDS011;6597;52.218;9.882;2022-07-09T07:58:06;2.55;;;1.75;;
13061;SDS011;6597;52.218;9.882;2022-07-09T08:00:33;2.35;;;2.03;;
13061;SDS011;6597;52.218;9.882;2022-07-09T08:03:00;4.55;;;2.00;;
13061;SDS011;6597;52.218;9.882;2022-07-09T08:05:26;2.33;;;1.85;;
13061;SDS011;6597;52.218;9.882;2022-07-09T08:07:53;1.92;;;1.80;;
13061;SDS011;6597;52.218;9.882;2022-07-09T08:10:20;2.25;;;1.80;;
13061;SDS011;6597;52.218;9.882;2022-07-09T08:12:48;1.70;;;1.60;;
13061;SDS011;6597;52.218;9.882;2022-07-09T08:15:14;2.58;;;2.08;;
13061;SDS011;6597;52.218;9.882;2022-07-09T08:17:41;2.50;;;1.92;;
13061;SDS011;6597;52.218;9.882;2022-07-09T08:20:08;2.10;;;1.80;;
13061;SDS011;6597;52.218;9.882;2022-07-09T08:22:36;2.38;;;1.70;;
13061;SDS011;6597;52.218;9.882;2022-07-09T08:25:02;5.63;;;1.90;;
13061;SDS011;6597;52.218;9.882;2022-07-09T08:27:31;2.75;;;1.88;;
13061;SDS011;6597;52.218;9.882;2022-07-09T08:29:57;1.83;;;1.70;;
13061;SDS011;6597;52.218;9.882;2022-07-09T08:32:24;3.67;;;1.98;;
13061;SDS011;6597;52.218;9.882;2022-07-09T08:34:51;2.83;;;1.73;;
13061;SDS011;6597;52.218;9.882;2022-07-09T08:37:18;2.65;;;1.88;;
13061;SDS011;6597;52.218;9.882;2022-07-09T08:39:44;2.17;;;1.60;;
13061;SDS011;6597;52.218;9.882;2022-07-09T08:42:11;1.80;;;1.50;;
13061;SDS011;6597;52.218;9.882;2022-07-09T08:44:39;2.60;;;1.63;;
13061;SDS011;6597;52.218;9.882;2022-07-09T08:47:08;2.53;;;1.65;;
13061;SDS011;6597;52.218;9.882;2022-07-09T08:49:36;3.13;;;1.60;;
13061;SDS011;6597;52.218;9.882;2022-07-09T08:52:04;2.20;;;2.00;;
13061;SDS011;6597;52.218;9.882;2022-07-09T08:54:32;1.83;;;1.55;;
13061;SDS011;6597;52.218;9.882;2022-07-09T08:57:00;3.65;;;2.35;;
13061;SDS011;6597;52.218;9.882;2022-07-09T08:59:27;2.90;;;1.98;;
13061;SDS011;6597;52.218;9.882;2022-07-09T09:01:55;5.40;;;2.38;;
13061;SDS011;6597;52.218;9.882;2022-07-09T09:04:21;2.40;;;1.90;;
13061;SDS011;6597;52.218;9.882;2022-07-09T09:06:49;4.60;;;1.77;;
13061;SDS011;6597;52.218;9.882;2022-07-09T09:09:18;2.55;;;1.75;;
13061;SDS011;6597;52.218;9.882;2022-07-09T09:11:46;3.42;;;1.58;;
13061;SDS011;6597;52.218;9.882;2022-07-09T09:14:17;6.05;;;1.60;;
13061;SDS011;6597;52.218;9.882;2022-07-09T09:16:45;1.35;;;1.25;;
13061;SDS011;6597;52.218;9.882;2022-07-09T09:19:14;3.10;;;1.50;;
13061;SDS011;6597;52.218;9.882;2022-07-09T09:21:40;1.50;;;1.40;;
13061;SDS011;6597;52.218;9.882;2022-07-09T09:24:07;4.65;;;1.80;;
13061;SDS011;6597;52.218;9.882;2022-07-09T09:26:34;2.80;;;1.73;;
13061;SDS011;6597;52.218;9.882;2022-07-09T09:29:03;3.75;;;2.05;;
13061;SDS011;6597;52.218;9.882;2022-07-09T09:31:30;2.13;;;1.83;;
13061;SDS011;6597;52.218;9.882;2022-07-09T09:34:09;4.65;;;2.00;;
13061;SDS011;6597;52.218;9.882;2022-07-09T09:36:39;4.47;;;1.90;;
13061;SDS011;6597;52.218;9.882;2022-07-09T09:39:08;1.98;;;1.83;;
13061;SDS011;6597;52.218;9.882;2022-07-09T09:41:36;3.15;;;2.25;;
13061;SDS011;6597;52.218;9.882;2022-07-09T09:44:03;3.08;;;2.00;;
13061;SDS011;6597;52.218;9.882;2022-07-09T09:46:34;3.38;;;1.80;;
13061;SDS011;6597;52.218;9.882;2022-07-09T09:49:01;3.63;;;1.83;;
13061;SDS011;6597;52.218;9.882;2022-07-09T09:51:31;2.50;;;1.70;;
13061;SDS011;6597;52.218;9.882;2022-07-09T09:54:02;3.83;;;1.95;;
13061;SDS011;6597;52.218;9.882;2022-07-09T09:56:30;3.33;;;2.30;;
13061;SDS011;6597;52.218;9.882;2022-07-09T09:58:57;4.78;;;2.20;;
13061;SDS011;6597;52.218;9.882;2022-07-09T10:01:25;3.47;;;2.28;;
13061;SDS011;6597;52.218;9.882;2022-07-09T10:03:52;3.00;;;2.03;;
13061;SDS011;6597;52.218;9.882;2022-07-09T10:06:19;3.50;;;1.92;;
13061;SDS011;6597;52.218;9.882;2022-07-09T10:08:46;3.28;;;2.08;;
13061;SDS011;6597;52.218;9.882;2022-07-09T10:11:14;4.80;;;1.80;;
13061;SDS011;6597;52.218;9.882;2022-07-09T10:13:49;1.65;;;1.48;;
13061;SDS011;6597;52.218;9.882;2022-07-09T10:16:16;2.28;;;1.50;;
13061;SDS011;6597;52.218;9.882;2022-07-09T10:18:49;2.05;;;1.35;;
13061;SDS011;6597;52.218;9.882;2022-07-09T10:21:16;7.82;;;1.65;;
13061;SDS011;6597;52.218;9.882;2022-07-09T10:23:48;2.55;;;1.33;;
13061;SDS011;6597;52.218;9.882;2022-07-09T10:26:17;3.50;;;1.60;;
13061;SDS011;6597;52.218;9.882;2022-07-09T10:28:43;1.85;;;1.27;;
13061;SDS011;6597;52.218;9.882;2022-07-09T10:31:10;1.30;;;1.20;;
13061;SDS011;6597;52.218;9.882;2022-07-09T10:33:38;1.67;;;1.13;;
13061;SDS011;6597;52.218;9.882;2022-07-09T10:36:15;2.47;;;1.30;;
13061;SDS011;6597;52.218;9.882;2022-07-09T10:38:51;1.30;;;1.10;;
13061;SDS011;6597;52.218;9.882;2022-07-09T10:41:22;2.75;;;1.55;;
13061;SDS011;6597;52.218;9.882;2022-07-09T10:43:49;3.20;;;1.50;;
13061;SDS011;6597;52.218;9.882;2022-07-09T10:46:17;2.78;;;1.30;;
13061;SDS011;6597;52.218;9.882;2022-07-09T10:48:44;1.60;;;1.48;;
13061;SDS011;6597;52.218;9.882;2022-07-09T10:51:16;2.10;;;1.35;;
13061;SDS011;6597;52.218;9.882;2022-07-09T10:53:43;1.58;;;1.30;;
13061;SDS011;6597;52.218;9.882;2022-07-09T10:56:10;3.28;;;1.42;;
13061;SDS011;6597;52.218;9.882;2022-07-09T10:58:38;1.27;;;1.08;;
13061;SDS011;6597;52.218;9.882;2022-07-09T11:01:11;1.52;;;1.20;;
13061;SDS011;6597;52.218;9.882;2022-07-09T11:03:48;2.13;;;1.20;;
13061;SDS011;6597;52.218;9.882;2022-07-09T11:06:15;3.97;;;1.20;;
13061;SDS011;6597;52.218;9.882;2022-07-09T11:08:42;1.75;;;1.10;;
13061;SDS011;6597;52.218;9.882;2022-07-09T11:11:09;3.05;;;1.02;;
13061;SDS011;6597;52.218;9.882;2022-07-09T11:13:37;0.82;;;0.82;;
13061;SDS011;6597;52.218;9.882;2022-07-09T11:16:04;1.65;;;1.10;;
13061;SDS011;6597;52.218;9.882;2022-07-09T11:18:31;1.13;;;1.02;;
13061;SDS011;6597;52.218;9.882;2022-07-09T11:20:57;3.60;;;1.40;;
13061;SDS011;6597;52.218;9.882;2022-07-09T11:23:24;1.20;;;1.10;;
13061;SDS011;6597;52.218;9.882;2022-07-09T11:25:51;1.50;;;1.40;;
13061;SDS011;6597;52.218;9.882;2022-07-09T11:28:18;1.77;;;1.20;;
13061;SDS011;6597;52.218;9.882;2022-07-09T11:30:56;2.15;;;1.20;;
13061;SDS011;6597;52.218;9.882;2022-07-09T11:33:24;2.47;;;1.05;;
13061;SDS011;6597;52.218;9.882;2022-07-09T11:35:50;1.10;;;1.02;;
13061;SDS011;6597;52.218;9.882;2022-07-09T11:38:17;1.23;;;1.00;;
13061;SDS011;6597;52.218;9.882;2022-07-09T11:40:43;2.90;;;1.00;;
13061;SDS011;6597;52.218;9.882;2022-07-09T11:43:13;1.88;;;1.02;;
13061;SDS011;6597;52.218;9.882;2022-07-09T11:45:50;2.45;;;1.17;;
13061;SDS011;6597;52.218;9.882;2022-07-09T11:48:19;1.08;;;0.98;;
13061;SDS011;6597;52.218;9.882;2022-07-09T11:50:45;1.30;;;0.77;;
13061;SDS011;6597;52.218;9.882;2022-07-09T11:53:19;1.35;;;1.10;;
13061;SDS011;6597;52.218;9.882;2022-07-09T11:55:56;0.82;;;0.77;;
13061;SDS011;6597;52.218;9.882;2022-07-09T11:58:25;0.82;;;0.82;;
13061;SDS011;6597;52.218;9.882;2022-07-09T12:00:53;4.32;;;1.25;;
13061;SDS011;6597;52.218;9.882;2022-07-09T12:03:23;1.42;;;1.25;;
13061;SDS011;6597;52.218;9.882;2022-07-09T12:05:50;1.05;;;1.02;;
13061;SDS011;6597;52.218;9.882;2022-07-09T12:08:25;1.23;;;1.00;;
13061;SDS011;6597;52.218;9.882;2022-07-09T12:10:53;0.70;;;0.70;;
13061;SDS011;6597;52.218;9.882;2022-07-09T12:13:20;2.67;;;0.90;;
13061;SDS011;6597;52.218;9.882;2022-07-09T12:15:47;1.13;;;1.02;;
13061;SDS011;6597;52.218;9.882;2022-07-09T12:18:15;1.00;;;1.00;;
13061;SDS011;6597;52.218;9.882;2022-07-09T12:20:41;0.95;;;0.90;;
13061;SDS011;6597;52.218;9.882;2022-07-09T12:23:08;1.20;;;0.98;;
13061;SDS011;6597;52.218;9.882;2022-07-09T12:25:34;1.45;;;0.90;;
13061;SDS011;6597;52.218;9.882;2022-07-09T12:28:01;1.15;;;0.90;;
13061;SDS011;6597;52.218;9.882;2022-07-09T12:30:28;0.80;;;0.80;;
13061;SDS011;6597;52.218;9.882;2022-07-09T12:32:55;1.20;;;1.10;;
13061;SDS011;6597;52.218;9.882;2022-07-09T12:35:24;1.05;;;1.00;;
13061;SDS011;6597;52.218;9.882;2022-07-09T12:37:52;2.22;;;1.02;;
13061;SDS011;6597;52.218;9.882;2022-07-09T12:40:21;1.00;;;0.82;;
13061;SDS011;6597;52.218;9.882;2022-07-09T12:42:47;1.15;;;0.98;;
13061;SDS011;6597;52.218;9.882;2022-07-09T12:45:14;2.85;;;0.82;;
13061;SDS011;6597;52.218;9.882;2022-07-09T12:47:41;1.90;;;1.17;;
13061;SDS011;6597;52.218;9.882;2022-07-09T12:50:07;1.98;;;0.95;;
13061;SDS011;6597;52.218;9.882;2022-07-09T12:52:37;1.17;;;0.90;;
13061;SDS011;6597;52.218;9.882;2022-07-09T12:55:04;1.85;;;0.93;;
13061;SDS011;6597;52.218;9.882;2022-07-09T12:57:32;3.47;;;1.30;;
13061;SDS011;6597;52.218;9.882;2022-07-09T12:59:59;1.40;;;0.80;;
13061;SDS011;6597;52.218;9.882;2022-07-09T13:02:26;1.33;;;1.00;;
13061;SDS011;6597;52.218;9.882;2022-07-09T13:04:53;0.82;;;0.82;;
13061;SDS011;6597;52.218;9.882;2022-07-09T13:07:19;1.52;;;1.05;;
13061;SDS011;6597;52.218;9.882;2022-07-09T13:09:47;0.88;;;0.85;;
13061;SDS011;6597;52.218;9.882;2022-07-09T13:12:14;0.93;;;0.90;;
13061;SDS011;6597;52.218;9.882;2022-07-09T13:14:41;2.08;;;0.93;;
13061;SDS011;6597;52.218;9.882;2022-07-09T13:17:08;0.85;;;0.80;;
13061;SDS011;6597;52.218;9.882;2022-07-09T13:19:34;5.97;;;1.13;;
13061;SDS011;6597;52.218;9.882;2022-07-09T13:22:01;1.20;;;0.98;;
13061;SDS011;6597;52.218;9.882;2022-07-09T13:24:28;8.02;;;1.50;;
13061;SDS011;6597;52.218;9.882;2022-07-09T13:26:55;2.17;;;1.50;;
13061;SDS011;6597;52.218;9.882;2022-07-09T13:29:22;5.03;;;1.33;;
13061;SDS011;6597;52.218;9.882;2022-07-09T13:31:49;6.15;;;1.80;;
13061;SDS011;6597;52.218;9.882;2022-07-09T13:34:15;3.05;;;1.88;;
13061;SDS011;6597;52.218;9.882;2022-07-09T13:36:42;2.40;;;1.50;;
13061;SDS011;6597;52.218;9.882;2022-07-09T13:39:08;2.17;;;1.75;;
13061;SDS011;6597;52.218;9.882;2022-07-09T13:41:35;1.30;;;1.20;;
13061;SDS011;6597;52.218;9.882;2022-07-09T13:44:03;4.05;;;1.98;;
13061;SDS011;6597;52.218;9.882;2022-07-09T13:46:30;1.38;;;1.27;;
13061;SDS011;6597;52.218;9.882;2022-07-09T13:48:57;1.88;;;1.45;;
13061;SDS011;6597;52.218;9.882;2022-07-09T13:51:24;2.30;;;1.23;;
13061;SDS011;6597;52.218;9.882;2022-07-09T13:53:50;1.38;;;1.27;;
13061;SDS011;6597;52.218;9.882;2022-07-09T13:56:17;2.92;;;1.38;;
13061;SDS011;6597;52.218;9.882;2022-07-09T13:58:44;1.58;;;1.30;;
13061;SDS011;6597;52.218;9.882;2022-07-09T14:01:11;3.65;;;1.40;;
13061;SDS011;6597;52.218;9.882;2022-07-09T14:03:39;1.55;;;1.33;;
13061;SDS011;6597;52.218;9.882;2022-07-09T14:06:06;1.33;;;1.23;;
13061;SDS011;6597;52.218;9.882;2022-07-09T14:08:33;3.15;;;1.50;;
13061;SDS011;6597;52.218;9.882;2022-07-09T14:10:59;4.20;;;1.48;;
13061;SDS011;6597;52.218;9.882;2022-07-09T14:13:26;2.15;;;1.30;;
13061;SDS011;6597;52.218;9.882;2022-07-09T14:15:55;2.00;;;1.48;;
13061;SDS011;6597;52.218;9.882;2022-07-09T14:18:23;1.35;;;1.20;;
13061;SDS011;6597;52.218;9.882;2022-07-09T14:20:50;2.78;;;1.55;;
13061;SDS011;6597;52.218;9.882;2022-07-09T14:23:16;2.63;;;1.25;;
13061;SDS011;6597;52.218;9.882;2022-07-09T14:25:43;3.70;;;1.38;;
13061;SDS011;6597;52.218;9.882;2022-07-09T14:28:09;4.63;;;1.75;;
13061;SDS011;6597;52.218;9.882;2022-07-09T14:30:37;2.15;;;1.73;;
13061;SDS011;6597;52.218;9.882;2022-07-09T14:33:03;2.95;;;1.30;;
13061;SDS011;6597;52.218;9.882;2022-07-09T14:35:31;4.78;;;1.63;;
13061;SDS011;6597;52.218;9.882;2022-07-09T14:37:58;1.63;;;1.23;;
13061;SDS011;6597;52.218;9.882;2022-07-09T14:40:25;2.15;;;1.02;;
13061;SDS011;6597;52.218;9.882;2022-07-09T14:42:51;2.80;;;1.23;;
13061;SDS011;6597;52.218;9.882;2022-07-09T14:45:18;0.73;;;0.73;;
13061;SDS011;6597;52.218;9.882;2022-07-09T14:47:45;2.45;;;1.13;;
13061;SDS011;6597;52.218;9.882;2022-07-09T14:50:11;1.00;;;0.95;;
13061;SDS011;6597;52.218;9.882;2022-07-09T14:52:39;1.08;;;1.00;;
13061;SDS011;6597;52.218;9.882;2022-07-09T14:55:10;1.10;;;1.00;;
13061;SDS011;6597;52.218;9.882;2022-07-09T14:57:37;2.50;;;1.00;;
13061;SDS011;6597;52.218;9.882;2022-07-09T15:00:04;2.17;;;1.00;;